Time;durP1;ratioP1;P1;durP2;ratioP2;P2;SDS_P1;SDS_P2;PMS_P1;PMS_P2;Temp;Humidity;BMP_temperature;BMP_pressure;BME280_temperature;BME280_humidity;BME280_pressure;Samples;Min_cycle;Max_cycle;Signal;HPM_P1;HPM_P2
2022/03/14 00:01:24;;;;;;;7.00;4.78;;;11.40;99.90;;;;;;5053301;28;21335;-62
2022/03/14 00:03:53;;;;;;;7.20;5.38;;;11.40;99.90;;;;;;5071020;28;20036;-61
2022/03/14 00:06:19;;;;;;;8.27;5.20;;;11.40;99.90;;;;;;5072816;28;20043;-62
2022/03/14 00:08:46;;;;;;;8.25;6.10;;;11.50;99.90;;;;;;5073849;28;20032;-61
2022/03/14 00:11:15;;;;;;;8.20;5.75;;;11.40;99.90;;;;;;5073390;28;20346;-61
2022/03/14 00:13:43;;;;;;;7.85;5.25;;;11.40;99.90;;;;;;5074304;28;20112;-61
2022/03/14 00:16:09;;;;;;;7.88;5.28;;;11.40;99.90;;;;;;5073993;28;20120;-61
2022/03/14 00:18:36;;;;;;;8.43;5.30;;;11.40;99.90;;;;;;5073958;28;20105;-61
2022/03/14 00:21:05;;;;;;;8.75;5.60;;;11.40;99.90;;;;;;5072811;28;20056;-61
2022/03/14 00:23:31;;;;;;;8.45;5.43;;;11.40;99.90;;;;;;5073976;28;20115;-61
2022/03/14 00:25:56;;;;;;;7.97;5.45;;;11.40;99.90;;;;;;5073791;28;20533;-63
2022/03/14 00:28:22;;;;;;;7.15;4.95;;;11.30;99.90;;;;;;5074107;28;20033;-62
2022/03/14 00:30:47;;;;;;;8.18;5.35;;;11.30;99.90;;;;;;5073329;28;20036;-61
2022/03/14 00:33:13;;;;;;;6.38;4.47;;;11.30;99.90;;;;;;5073782;28;20528;-61
2022/03/14 00:35:39;;;;;;;8.75;5.38;;;11.30;99.90;;;;;;5073886;28;20044;-61
2022/03/14 00:38:05;;;;;;;7.05;4.72;;;11.20;99.90;;;;;;5073487;28;20037;-62
2022/03/14 00:40:31;;;;;;;6.00;4.55;;;11.20;99.90;;;;;;5072259;28;20173;-61
2022/03/14 00:42:56;;;;;;;7.25;4.93;;;11.20;99.90;;;;;;5073758;28;20052;-63
2022/03/14 00:45:23;;;;;;;6.68;4.55;;;11.20;99.90;;;;;;5073748;28;20067;-61
2022/03/14 00:47:49;;;;;;;5.80;4.32;;;11.20;99.90;;;;;;5073678;28;20068;-61
2022/03/14 00:50:15;;;;;;;7.10;4.28;;;11.20;99.90;;;;;;5071855;28;20051;-61
2022/03/14 00:52:41;;;;;;;5.25;3.97;;;11.20;99.90;;;;;;5073425;28;20041;-62
2022/03/14 00:55:07;;;;;;;5.95;4.35;;;11.30;99.90;;;;;;5073411;28;20120;-62
2022/03/14 00:57:32;;;;;;;6.78;4.07;;;11.30;99.90;;;;;;5073599;28;20049;-61
2022/03/14 00:59:58;;;;;;;5.22;3.80;;;11.30;99.90;;;;;;5071894;28;20040;-61
2022/03/14 01:02:24;;;;;;;5.80;4.05;;;11.30;99.90;;;;;;5073476;28;20045;-61
2022/03/14 01:04:50;;;;;;;4.47;3.60;;;11.20;99.90;;;;;;5073671;28;20072;-61
2022/03/14 01:07:15;;;;;;;5.00;3.78;;;11.30;99.90;;;;;;5073453;28;20094;-62
2022/03/14 01:09:41;;;;;;;6.22;3.67;;;11.30;99.90;;;;;;5073204;28;20021;-62
2022/03/14 01:12:07;;;;;;;4.50;3.42;;;11.30;99.90;;;;;;5077422;28;20529;-62
2022/03/14 01:14:33;;;;;;;5.45;3.40;;;11.30;99.90;;;;;;5077343;28;20052;-61
2022/03/14 01:16:58;;;;;;;4.45;3.42;;;11.40;99.90;;;;;;5077117;28;20362;-61
2022/03/14 01:19:24;;;;;;;4.30;2.90;;;11.40;99.90;;;;;;5076411;28;20075;-62
2022/03/14 01:21:50;;;;;;;4.45;3.17;;;11.40;99.90;;;;;;5077411;28;20072;-62
2022/03/14 01:24:16;;;;;;;4.70;2.97;;;11.50;99.90;;;;;;5076808;28;20083;-61
2022/03/14 01:26:42;;;;;;;4.47;3.28;;;11.50;99.90;;;;;;5077070;28;20044;-61
2022/03/14 01:29:08;;;;;;;5.00;3.17;;;11.50;99.90;;;;;;5075660;28;20101;-61
2022/03/14 01:31:34;;;;;;;4.65;3.45;;;11.50;99.90;;;;;;5076524;28;20047;-61
2022/03/14 01:33:59;;;;;;;5.15;3.40;;;11.50;99.90;;;;;;5076968;28;20170;-61
2022/03/14 01:36:25;;;;;;;5.38;3.70;;;11.50;99.90;;;;;;5076649;28;20461;-61
2022/03/14 01:38:51;;;;;;;4.40;3.22;;;11.40;99.90;;;;;;5076831;28;20112;-60
2022/03/14 01:41:18;;;;;;;5.07;3.33;;;11.50;99.90;;;;;;5076544;28;20048;-61
2022/03/14 01:43:45;;;;;;;4.80;3.53;;;11.40;99.90;;;;;;5076452;28;20388;-60
2022/03/14 01:46:16;;;;;;;4.35;2.97;;;11.40;99.90;;;;;;5076338;28;20370;-61
2022/03/14 01:48:45;;;;;;;4.43;3.28;;;11.40;99.90;;;;;;5076585;28;20064;-61
2022/03/14 01:51:10;;;;;;;6.18;3.55;;;11.40;99.90;;;;;;5056336;28;20072;-61
2022/03/14 01:53:36;;;;;;;6.55;3.55;;;11.40;99.90;;;;;;5056620;28;20083;-61
2022/03/14 01:56:02;;;;;;;4.88;3.53;;;11.40;99.90;;;;;;5055657;28;20048;-61
2022/03/14 01:58:28;;;;;;;5.43;3.33;;;11.40;99.90;;;;;;5056513;28;20045;-61
2022/03/14 02:00:54;;;;;;;5.43;3.40;;;11.40;99.90;;;;;;5074405;28;20443;-61
2022/03/14 02:03:19;;;;;;;6.18;4.35;;;11.40;99.90;;;;;;5076285;28;20044;-62
2022/03/14 02:05:45;;;;;;;7.57;4.78;;;11.30;99.90;;;;;;5076343;28;20101;-62
2022/03/14 02:08:11;;;;;;;6.72;5.00;;;11.30;99.90;;;;;;5076277;28;20040;-61
2022/03/14 02:10:38;;;;;;;5.45;4.38;;;11.30;99.90;;;;;;5075650;28;20090;-61
2022/03/14 02:13:08;;;;;;;5.65;4.15;;;11.30;99.90;;;;;;5076011;28;20052;-62
2022/03/14 02:15:41;;;;;;;6.20;4.22;;;11.20;99.90;;;;;;5076198;28;20123;-61
2022/03/14 02:18:06;;;;;;;6.85;4.30;;;11.20;99.90;;;;;;5076100;28;20101;-62
2022/03/14 02:20:33;;;;;;;5.72;4.00;;;11.20;99.90;;;;;;5074653;28;20431;-61
2022/03/14 02:22:58;;;;;;;6.03;4.18;;;11.20;99.90;;;;;;5076072;28;20048;-61
2022/03/14 02:25:24;;;;;;;5.95;4.20;;;11.20;99.90;;;;;;5075972;28;20113;-62
2022/03/14 02:27:50;;;;;;;5.57;3.78;;;11.10;99.90;;;;;;5076274;28;20028;-61
2022/03/14 02:30:16;;;;;;;7.95;4.70;;;11.10;99.90;;;;;;5075280;28;20158;-62
2022/03/14 02:32:42;;;;;;;7.13;3.72;;;11.10;99.90;;;;;;5075741;28;20515;-61
2022/03/14 02:35:11;;;;;;;5.65;3.90;;;11.10;99.90;;;;;;5075915;28;20036;-62
2022/03/14 02:37:38;;;;;;;5.45;3.70;;;11.10;99.90;;;;;;5074516;28;20044;-62
2022/03/14 02:40:05;;;;;;;4.38;3.22;;;11.10;99.90;;;;;;5075229;28;20123;-62
2022/03/14 02:42:31;;;;;;;4.80;3.42;;;11.10;99.90;;;;;;5074772;28;20102;-61
2022/03/14 02:44:57;;;;;;;5.13;3.13;;;11.10;99.90;;;;;;5075661;28;20044;-61
2022/03/14 02:47:22;;;;;;;4.63;3.33;;;11.10;99.90;;;;;;5075559;28;20056;-61
2022/03/14 02:49:48;;;;;;;4.35;3.05;;;11.10;99.90;;;;;;5075209;28;20028;-61
2022/03/14 02:52:14;;;;;;;5.78;3.22;;;11.10;99.90;;;;;;5075526;28;20158;-62
2022/03/14 02:54:43;;;;;;;4.65;2.70;;;11.10;99.90;;;;;;5075118;28;20040;-61
2022/03/14 02:57:09;;;;;;;3.75;2.70;;;11.10;99.90;;;;;;5074327;28;20077;-61
2022/03/14 02:59:35;;;;;;;3.83;2.63;;;11.10;99.90;;;;;;5074779;28;20116;-61
2022/03/14 03:02:00;;;;;;;3.38;2.33;;;11.10;99.90;;;;;;5074070;28;20109;-61
2022/03/14 03:04:26;;;;;;;3.53;2.70;;;11.10;99.90;;;;;;5075300;28;20041;-63
2022/03/14 03:06:54;;;;;;;3.75;2.55;;;11.10;99.90;;;;;;5074988;28;20049;-61
2022/03/14 03:09:20;;;;;;;4.50;2.67;;;11.10;99.90;;;;;;5074428;28;20059;-62
2022/03/14 03:11:46;;;;;;;3.67;2.55;;;11.10;99.90;;;;;;5075121;28;20484;-62
2022/03/14 03:14:12;;;;;;;3.90;2.50;;;11.10;99.90;;;;;;5075122;28;20036;-61
2022/03/14 03:16:38;;;;;;;5.38;2.65;;;11.10;99.90;;;;;;5074957;28;20123;-62
2022/03/14 03:19:06;;;;;;;3.53;2.42;;;11.00;99.90;;;;;;5074356;28;20082;-61
2022/03/14 03:21:34;;;;;;;5.28;2.80;;;11.10;99.90;;;;;;5074401;28;20424;-61
2022/03/14 03:24:00;;;;;;;3.95;2.35;;;11.10;99.90;;;;;;5074888;28;20043;-61
2022/03/14 03:26:27;;;;;;;2.83;2.22;;;11.00;99.90;;;;;;5074713;28;20060;-61
2022/03/14 03:28:53;;;;;;;2.85;2.10;;;11.00;99.90;;;;;;5074662;28;20365;-61
2022/03/14 03:31:20;;;;;;;3.10;2.20;;;11.00;99.90;;;;;;5073429;28;20047;-61
2022/03/14 03:33:50;;;;;;;3.25;2.20;;;11.00;99.90;;;;;;5073830;28;20152;-61
2022/03/14 03:36:15;;;;;;;2.75;2.00;;;10.90;99.90;;;;;;5074588;28;20119;-61
2022/03/14 03:38:42;;;;;;;3.58;2.00;;;11.00;99.90;;;;;;5074654;28;20143;-61
2022/03/14 03:41:07;;;;;;;2.47;2.00;;;10.90;99.90;;;;;;5073675;28;20441;-62
2022/03/14 03:43:33;;;;;;;2.95;2.00;;;10.90;99.90;;;;;;5073557;28;20102;-61
2022/03/14 03:45:59;;;;;;;2.60;1.98;;;10.90;99.90;;;;;;5073020;28;20450;-62
2022/03/14 03:48:24;;;;;;;2.70;2.28;;;10.90;99.90;;;;;;5074152;28;20043;-61
2022/03/14 03:50:50;;;;;;;2.97;2.20;;;10.80;99.90;;;;;;5073946;28;20040;-61
2022/03/14 03:53:16;;;;;;;3.25;2.10;;;10.80;99.90;;;;;;5074320;28;20071;-61
2022/03/14 03:55:41;;;;;;;3.03;2.17;;;10.70;99.90;;;;;;5074339;28;20098;-61
2022/03/14 03:58:07;;;;;;;2.72;2.00;;;10.80;99.90;;;;;;5073966;28;20044;-61
2022/03/14 04:00:33;;;;;;;2.50;1.90;;;10.70;99.90;;;;;;5073659;28;20040;-61
2022/03/14 04:02:59;;;;;;;3.13;2.00;;;10.70;99.90;;;;;;5073849;28;20040;-62
2022/03/14 04:05:27;;;;;;;3.63;2.20;;;10.80;99.90;;;;;;5073177;28;20068;-61
2022/03/14 04:07:58;;;;;;;3.15;2.13;;;10.70;99.90;;;;;;5074013;28;20043;-61
2022/03/14 04:10:28;;;;;;;3.25;2.20;;;10.70;99.90;;;;;;5073678;28;20414;-62
2022/03/14 04:12:58;;;;;;;2.97;2.10;;;10.80;99.90;;;;;;5073856;28;20481;-61
2022/03/14 04:15:24;;;;;;;2.83;2.10;;;10.70;99.90;;;;;;5074157;28;20343;-61
2022/03/14 04:17:50;;;;;;;2.97;2.20;;;10.70;99.90;;;;;;5074093;28;20036;-61
2022/03/14 04:20:15;;;;;;;2.92;2.00;;;10.70;99.90;;;;;;5063430;28;20056;-61
2022/03/14 04:22:41;;;;;;;2.65;1.98;;;10.80;99.90;;;;;;5035696;28;20032;-62
2022/03/14 04:25:11;;;;;;;2.92;2.33;;;10.80;99.90;;;;;;5053185;28;20134;-63
2022/03/14 04:27:37;;;;;;;4.68;2.20;;;10.80;99.90;;;;;;5053211;28;20048;-61
2022/03/14 04:30:03;;;;;;;3.08;2.20;;;10.90;99.90;;;;;;5055911;28;20041;-61
2022/03/14 04:32:29;;;;;;;3.50;2.30;;;10.80;99.90;;;;;;5053213;28;20335;-61
2022/03/14 04:34:55;;;;;;;3.53;2.33;;;10.80;99.90;;;;;;5053328;28;20043;-61
2022/03/14 04:37:21;;;;;;;2.92;2.10;;;10.80;99.90;;;;;;5053433;28;20052;-61
2022/03/14 04:39:48;;;;;;;3.65;2.40;;;10.80;99.90;;;;;;5055086;28;20037;-61
2022/03/14 04:42:17;;;;;;;3.80;2.22;;;10.80;99.90;;;;;;5053205;28;20049;-61
2022/03/14 04:44:44;;;;;;;4.78;2.60;;;10.80;99.90;;;;;;5055135;28;20040;-61
2022/03/14 04:47:10;;;;;;;3.25;2.20;;;10.80;99.90;;;;;;5074579;28;20040;-61
2022/03/14 04:49:36;;;;;;;3.47;2.60;;;10.80;99.90;;;;;;5072337;28;20043;-62
2022/03/14 04:52:02;;;;;;;3.38;2.70;;;10.70;99.90;;;;;;5056899;28;20454;-61
2022/03/14 04:54:27;;;;;;;3.08;2.42;;;10.70;99.90;;;;;;5057090;28;20104;-61
2022/03/14 04:56:54;;;;;;;3.78;2.40;;;10.70;99.90;;;;;;5056887;28;20462;-61
2022/03/14 04:59:21;;;;;;;3.85;2.63;;;10.70;99.90;;;;;;5058101;28;20040;-61
2022/03/14 05:01:47;;;;;;;3.80;2.53;;;10.70;99.90;;;;;;5056664;28;20055;-61
2022/03/14 05:04:13;;;;;;;3.63;2.50;;;10.70;99.90;;;;;;5057113;28;20433;-61
2022/03/14 05:06:38;;;;;;;3.60;2.40;;;10.70;99.90;;;;;;5056288;28;20052;-62
2022/03/14 05:09:05;;;;;;;3.60;2.45;;;10.70;99.90;;;;;;5058592;28;20055;-61
2022/03/14 05:11:32;;;;;;;4.45;2.80;;;10.70;99.90;;;;;;5077491;28;20048;-61
2022/03/14 05:13:59;;;;;;;3.85;2.83;;;10.70;99.90;;;;;;5077170;28;20040;-62
2022/03/14 05:16:25;;;;;;;4.10;2.63;;;10.70;99.90;;;;;;5077058;28;20052;-61
2022/03/14 05:18:51;;;;;;;4.30;2.85;;;10.70;99.90;;;;;;5077019;28;20110;-61
2022/03/14 05:21:16;;;;;;;4.53;3.00;;;10.60;99.90;;;;;;5076626;28;20080;-61
2022/03/14 05:23:42;;;;;;;3.65;2.55;;;10.70;99.90;;;;;;5076180;28;20377;-61
2022/03/14 05:26:08;;;;;;;5.00;2.85;;;10.70;99.90;;;;;;5076867;28;20044;-61
2022/03/14 05:28:34;;;;;;;3.58;2.72;;;10.60;99.90;;;;;;5077103;28;20043;-62
2022/03/14 05:30:59;;;;;;;3.83;2.63;;;10.60;99.90;;;;;;5076420;28;20052;-61
2022/03/14 05:33:25;;;;;;;4.40;2.75;;;10.60;99.90;;;;;;5076704;28;20032;-61
2022/03/14 05:35:52;;;;;;;5.80;2.95;;;10.50;99.90;;;;;;5077135;28;20036;-61
2022/03/14 05:38:17;;;;;;;5.45;3.20;;;10.60;99.90;;;;;;5076989;28;20036;-61
2022/03/14 05:40:43;;;;;;;6.55;3.33;;;10.50;99.90;;;;;;5076335;28;20166;-61
2022/03/14 05:43:10;;;;;;;4.78;3.20;;;10.50;99.90;;;;;;5076576;28;20472;-62
2022/03/14 05:45:36;;;;;;;5.40;3.47;;;10.50;99.90;;;;;;5076393;28;20040;-61
2022/03/14 05:48:03;;;;;;;5.32;3.55;;;10.50;99.90;;;;;;5076393;28;20098;-61
2022/03/14 05:50:28;;;;;;;4.95;3.50;;;10.50;99.90;;;;;;5076097;28;20029;-61
2022/03/14 05:52:54;;;;;;;3.97;3.10;;;10.40;99.90;;;;;;5076762;28;20476;-61
2022/03/14 05:55:20;;;;;;;4.75;3.58;;;10.40;99.90;;;;;;5075844;28;20514;-61
2022/03/14 05:57:46;;;;;;;4.82;3.22;;;10.50;99.90;;;;;;5076272;28;20048;-62
2022/03/14 06:00:13;;;;;;;4.20;3.10;;;10.40;99.90;;;;;;5075704;28;20785;-61
2022/03/14 06:02:45;;;;;;;6.15;3.78;;;10.40;99.90;;;;;;5076272;28;20044;-61
2022/03/14 06:05:10;;;;;;;5.28;3.75;;;10.40;99.90;;;;;;5076449;28;20052;-62
2022/03/14 06:07:36;;;;;;;5.53;3.25;;;10.40;99.90;;;;;;5076264;28;20054;-61
2022/03/14 06:10:02;;;;;;;6.35;4.07;;;10.40;99.90;;;;;;5075753;28;20039;-61
2022/03/14 06:12:29;;;;;;;6.22;3.65;;;10.40;99.90;;;;;;5076249;28;20045;-61
2022/03/14 06:14:57;;;;;;;4.53;3.47;;;10.40;99.90;;;;;;5075984;28;20367;-61
2022/03/14 06:17:23;;;;;;;5.03;3.65;;;10.40;99.90;;;;;;5076178;28;20048;-61
2022/03/14 06:19:49;;;;;;;5.72;3.78;;;10.40;99.90;;;;;;5075403;28;20045;-61
2022/03/14 06:22:19;;;;;;;5.43;4.00;;;10.40;99.90;;;;;;5075743;28;20476;-61
2022/03/14 06:24:47;;;;;;;5.70;3.63;;;10.40;99.90;;;;;;5075605;28;20377;-61
2022/03/14 06:27:21;;;;;;;6.25;3.88;;;10.40;99.90;;;;;;5075658;28;20487;-61
2022/03/14 06:29:47;;;;;;;5.88;4.18;;;10.40;99.90;;;;;;5068656;28;20029;-61
2022/03/14 06:32:13;;;;;;;5.70;3.92;;;10.50;99.90;;;;;;5037259;28;20488;-61
2022/03/14 06:34:39;;;;;;;6.15;4.15;;;10.40;99.90;;;;;;5053834;28;20477;-61
2022/03/14 06:37:07;;;;;;;6.80;4.28;;;10.40;99.90;;;;;;5055191;28;20056;-61
2022/03/14 06:39:36;;;;;;;7.10;4.10;;;10.40;99.90;;;;;;5057374;28;20032;-61
2022/03/14 06:42:08;;;;;;;6.68;4.18;;;10.40;99.90;;;;;;5054970;28;20037;-61
2022/03/14 06:44:36;;;;;;;7.55;4.72;;;10.40;99.90;;;;;;5055104;28;20041;-62
2022/03/14 06:47:01;;;;;;;9.07;4.72;;;10.40;99.90;;;;;;5054919;28;20041;-62
2022/03/14 06:49:28;;;;;;;7.10;4.75;;;10.40;99.90;;;;;;5054774;28;20116;-61
2022/03/14 06:51:54;;;;;;;8.80;6.50;;;10.40;99.90;;;;;;5054859;28;20524;-61
2022/03/14 06:54:19;;;;;;;9.15;6.55;;;10.40;99.90;;;;;;5055067;28;20037;-62
2022/03/14 06:56:47;;;;;;;8.80;7.05;;;10.40;99.90;;;;;;5054941;28;20045;-61
2022/03/14 06:59:12;;;;;;;8.35;6.82;;;10.30;99.90;;;;;;5055668;28;20068;-61
2022/03/14 07:01:38;;;;;;;9.65;7.22;;;10.40;99.90;;;;;;5053568;28;20153;-64
2022/03/14 07:04:04;;;;;;;9.35;7.15;;;10.40;99.90;;;;;;5053793;28;20062;-61
2022/03/14 07:06:29;;;;;;;10.43;7.68;;;10.40;99.90;;;;;;5052258;28;20500;-61
2022/03/14 07:08:55;;;;;;;9.40;7.57;;;10.40;99.90;;;;;;5053895;28;20055;-60
2022/03/14 07:11:21;;;;;;;10.77;7.72;;;10.50;99.90;;;;;;5074973;28;20119;-61
2022/03/14 07:13:46;;;;;;;10.05;7.93;;;10.50;99.90;;;;;;5074212;28;20461;-61
2022/03/14 07:16:12;;;;;;;9.65;7.25;;;10.50;99.90;;;;;;5073998;28;20056;-62
2022/03/14 07:18:37;;;;;;;9.02;7.50;;;10.40;99.90;;;;;;5053109;28;20094;-62
2022/03/14 07:21:03;;;;;;;9.40;7.22;;;10.50;99.90;;;;;;5055463;28;20147;-61
2022/03/14 07:23:29;;;;;;;8.55;6.90;;;10.50;99.90;;;;;;5054858;28;20041;-61
2022/03/14 07:25:55;;;;;;;8.57;6.95;;;10.50;99.90;;;;;;5054223;28;20059;-61
2022/03/14 07:28:22;;;;;;;8.88;6.97;;;10.50;99.90;;;;;;5053802;28;20064;-62
2022/03/14 07:30:47;;;;;;;7.38;5.75;;;10.50;99.90;;;;;;5065128;28;20029;-62
2022/03/14 07:33:13;;;;;;;7.47;5.95;;;10.50;99.90;;;;;;5062365;28;20037;-61
2022/03/14 07:35:39;;;;;;;7.28;6.05;;;10.50;99.90;;;;;;5064202;28;20124;-61
2022/03/14 07:38:05;;;;;;;7.95;6.13;;;10.50;99.90;;;;;;5074218;28;20033;-61
2022/03/14 07:40:31;;;;;;;7.68;6.07;;;10.40;99.90;;;;;;5069885;28;20040;-61
2022/03/14 07:42:58;;;;;;;6.95;5.60;;;10.50;99.90;;;;;;5058052;28;20033;-61
2022/03/14 07:45:25;;;;;;;8.00;6.43;;;10.50;99.90;;;;;;5053652;28;20497;-61
2022/03/14 07:47:53;;;;;;;7.18;5.82;;;10.40;99.90;;;;;;5053867;28;20496;-62
2022/03/14 07:50:19;;;;;;;10.35;6.35;;;10.40;99.90;;;;;;5064861;28;20044;-61
2022/03/14 07:52:46;;;;;;;7.85;6.63;;;10.30;99.90;;;;;;5072783;28;20052;-62
2022/03/14 07:55:12;;;;;;;9.02;7.55;;;10.30;99.90;;;;;;5073857;28;20715;-62
2022/03/14 07:57:39;;;;;;;10.93;8.25;;;10.30;99.90;;;;;;5072959;28;20476;-61
2022/03/14 08:00:09;;;;;;;10.55;8.57;;;10.30;99.90;;;;;;5056638;28;20529;-62
2022/03/14 08:02:34;;;;;;;10.45;8.82;;;10.30;99.90;;;;;;5053571;28;20537;-62
2022/03/14 08:05:00;;;;;;;14.57;9.80;;;10.20;99.90;;;;;;5054079;28;20119;-62
2022/03/14 08:07:28;;;;;;;16.38;11.57;;;10.20;99.90;;;;;;5053745;28;20064;-62
2022/03/14 08:09:55;;;;;;;14.45;11.30;;;10.20;99.90;;;;;;5054451;28;20091;-61
2022/03/14 08:12:22;;;;;;;18.38;13.63;;;10.10;99.90;;;;;;5052208;28;20052;-62
2022/03/14 08:14:49;;;;;;;19.27;14.15;;;10.10;99.90;;;;;;5053537;28;20048;-61
2022/03/14 08:17:14;;;;;;;15.00;12.48;;;10.10;99.90;;;;;;5070431;28;20036;-62
2022/03/14 08:19:40;;;;;;;18.55;14.05;;;10.10;99.90;;;;;;5072588;28;20052;-61
2022/03/14 08:22:06;;;;;;;29.60;20.83;;;10.10;99.90;;;;;;5073634;28;20062;-61
2022/03/14 08:24:33;;;;;;;65.47;35.33;;;9.90;99.90;;;;;;5073719;28;20049;-63
2022/03/14 08:26:59;;;;;;;86.78;38.95;;;9.90;99.90;;;;;;5061107;28;20076;-62
2022/03/14 08:29:24;;;;;;;57.28;29.70;;;9.80;99.90;;;;;;5056548;28;20060;-62
2022/03/14 08:31:50;;;;;;;34.03;19.42;;;9.80;99.90;;;;;;5058469;28;20029;-61
2022/03/14 08:34:16;;;;;;;136.50;62.95;;;9.70;99.90;;;;;;5052563;28;20545;-62
2022/03/14 08:36:42;;;;;;;66.90;30.23;;;9.80;99.90;;;;;;5053650;28;20059;-63
2022/03/14 08:39:10;;;;;;;25.50;14.80;;;9.60;99.90;;;;;;5058902;28;20119;-62
2022/03/14 08:41:40;;;;;;;26.92;15.77;;;9.50;99.90;;;;;;5053618;28;20040;-63
2022/03/14 08:44:07;;;;;;;27.13;14.55;;;9.50;99.90;;;;;;5053798;28;20110;-63
2022/03/14 08:46:35;;;;;;;33.35;16.88;;;9.50;99.90;;;;;;5052628;28;20099;-65
2022/03/14 08:49:01;;;;;;;30.15;17.02;;;9.40;99.90;;;;;;5053341;28;20124;-63
2022/03/14 08:51:27;;;;;;;30.98;17.02;;;9.40;99.90;;;;;;5073415;28;20052;-63
2022/03/14 08:53:54;;;;;;;35.13;18.52;;;9.40;99.90;;;;;;5073623;28;20108;-63
2022/03/14 08:56:20;;;;;;;32.40;17.77;;;9.40;99.90;;;;;;5073591;28;20055;-63
2022/03/14 08:58:45;;;;;;;29.58;18.15;;;9.40;99.90;;;;;;5073098;28;20036;-63
2022/03/14 09:01:12;;;;;;;26.30;14.77;;;9.30;99.90;;;;;;5072892;28;20491;-62
2022/03/14 09:03:38;;;;;;;24.33;13.18;;;9.50;99.90;;;;;;5073565;28;20078;-63
2022/03/14 09:06:04;;;;;;;25.17;11.73;;;9.40;99.90;;;;;;5055501;28;20043;-64
2022/03/14 09:08:31;;;;;;;20.00;10.15;;;9.50;99.90;;;;;;5058736;28;20086;-63
2022/03/14 09:11:00;;;;;;;19.42;9.85;;;9.50;99.90;;;;;;5055918;28;20422;-63
2022/03/14 09:13:26;;;;;;;19.90;9.27;;;9.50;99.90;;;;;;5051763;28;20351;-64
2022/03/14 09:15:51;;;;;;;18.13;8.05;;;9.60;99.90;;;;;;5052410;28;20093;-63
2022/03/14 09:18:17;;;;;;;16.88;7.70;;;9.60;99.90;;;;;;5053275;28;20123;-64
2022/03/14 09:20:47;;;;;;;14.13;6.85;;;9.70;99.90;;;;;;5065951;28;20064;-62
2022/03/14 09:23:13;;;;;;;15.13;7.25;;;9.70;99.90;;;;;;5072194;28;20041;-61
2022/03/14 09:25:39;;;;;;;16.65;5.65;;;9.80;99.90;;;;;;5073219;28;20044;-61
2022/03/14 09:28:05;;;;;;;12.77;4.70;;;9.80;99.90;;;;;;5072114;28;20033;-62
2022/03/14 09:30:30;;;;;;;9.70;4.63;;;9.90;99.90;;;;;;5072517;28;20036;-63
2022/03/14 09:32:56;;;;;;;11.95;4.22;;;9.90;99.90;;;;;;5076728;28;20033;-63
2022/03/14 09:35:24;;;;;;;11.60;4.50;;;10.00;99.90;;;;;;5060299;28;20033;-64
2022/03/14 09:37:50;;;;;;;12.43;4.70;;;10.00;99.90;;;;;;5055274;28;20416;-62
2022/03/14 09:40:21;;;;;;;11.73;4.22;;;10.00;99.90;;;;;;5071348;28;20406;-63
2022/03/14 09:42:53;;;;;;;10.13;3.65;;;10.10;99.90;;;;;;5075579;28;20060;-63
2022/03/14 09:45:20;;;;;;;10.38;3.97;;;10.10;99.90;;;;;;5076561;28;20369;-63
2022/03/14 09:47:48;;;;;;;10.77;3.80;;;10.00;99.90;;;;;;5075253;28;20056;-63
2022/03/14 09:50:31;;;;;;;8.27;2.92;;;10.00;99.90;;;;;;5075181;28;20045;-64
2022/03/14 09:52:58;;;;;;;8.57;3.55;;;9.90;99.90;;;;;;5075699;28;20044;-63
2022/03/14 09:55:25;;;;;;;12.25;3.78;;;9.90;99.90;;;;;;5076634;28;20040;-63
2022/03/14 09:57:51;;;;;;;13.50;3.60;;;9.90;99.90;;;;;;5065508;28;20167;-64
2022/03/14 10:00:17;;;;;;;11.32;3.10;;;9.90;99.90;;;;;;5064464;28;20537;-63
2022/03/14 10:02:44;;;;;;;11.45;3.28;;;9.90;99.90;;;;;;5075092;28;20060;-63
2022/03/14 10:05:11;;;;;;;16.20;4.10;;;10.00;99.90;;;;;;5076070;28;20457;-63
2022/03/14 10:07:39;;;;;;;14.68;4.53;;;10.10;99.90;;;;;;5070462;28;20083;-64
2022/03/14 10:10:05;;;;;;;11.50;4.32;;;10.20;99.90;;;;;;5063619;28;20040;-65
2022/03/14 10:12:32;;;;;;;15.40;5.40;;;10.30;99.90;;;;;;5076181;28;20082;-63
2022/03/14 10:14:59;;;;;;;12.48;4.53;;;10.40;99.90;;;;;;5060068;28;20075;-64
2022/03/14 10:17:27;;;;;;;12.10;5.07;;;10.50;99.90;;;;;;5055206;28;20041;-65
2022/03/14 10:20:00;;;;;;;18.15;5.40;;;10.50;99.90;;;;;;5060307;28;20530;-63
2022/03/14 10:22:40;;;;;;;12.10;5.35;;;10.60;99.90;;;;;;5075998;28;20044;-64
2022/03/14 10:25:20;;;;;;;15.95;5.15;;;10.70;99.90;;;;;;5075656;28;20080;-63
2022/03/14 10:27:54;;;;;;;12.55;5.30;;;10.70;99.90;;;;;;5074652;28;20048;-60
2022/03/14 10:30:29;;;;;;;13.20;5.05;;;10.70;99.90;;;;;;5075383;28;20036;-61
2022/03/14 10:33:07;;;;;;;;;;;10.90;99.90;;;;;;5075813;28;20534;-60
2022/03/14 10:35:35;;;;;;;10.90;4.32;;;10.90;99.90;;;;;;5075465;28;19928;-61
2022/03/14 10:38:04;;;;;;;13.75;4.85;;;11.00;99.90;;;;;;5075459;28;20037;-60
2022/03/14 10:40:41;;;;;;;10.95;4.70;;;11.10;99.90;;;;;;5068876;28;20051;-60
2022/03/14 10:43:19;;;;;;;18.45;6.05;;;11.20;99.90;;;;;;5075085;28;20048;-63
2022/03/14 10:45:45;;;;;;;10.73;5.10;;;11.30;99.90;;;;;;5075233;28;20040;-62
2022/03/14 10:48:11;;;;;;;13.18;4.97;;;11.30;99.90;;;;;;5075431;28;20115;-62
2022/03/14 10:50:39;;;;;;;11.95;4.82;;;11.50;99.90;;;;;;5074464;28;20409;-62
2022/03/14 10:53:09;;;;;;;13.20;4.40;;;11.40;99.90;;;;;;5074314;28;20346;-62
2022/03/14 10:55:38;;;;;;;12.00;4.97;;;11.40;99.90;;;;;;5075149;28;20040;-62
2022/03/14 10:58:14;;;;;;;11.48;4.80;;;11.40;99.90;;;;;;5075045;28;20044;-60
2022/03/14 11:00:51;;;;;;;15.70;5.90;;;11.40;99.90;;;;;;5074540;28;20036;-61
2022/03/14 11:03:39;;;;;;;15.40;6.50;;;11.30;99.90;;;;;;5075117;28;20079;-60
2022/03/14 11:06:07;;;;;;;11.75;5.57;;;11.40;99.90;;;;;;5074850;28;20087;-61
2022/03/14 11:08:36;;;;;;;12.85;6.05;;;11.40;99.90;;;;;;5074469;28;20415;-61
2022/03/14 11:11:17;;;;;;;12.38;6.60;;;11.50;99.90;;;;;;5063736;28;20052;-60
2022/03/14 11:13:46;;;;;;;13.65;7.07;;;11.50;99.90;;;;;;5054782;28;20041;-61
2022/03/14 11:16:26;;;;;;;15.25;7.57;;;11.50;99.90;;;;;;5054073;28;20116;-62
2022/03/14 11:18:52;;;;;;;13.55;8.50;;;11.50;99.90;;;;;;5054290;28;20051;-61
2022/03/14 11:21:21;;;;;;;17.63;8.32;;;11.50;99.90;;;;;;5058121;28;20505;-61
2022/03/14 11:23:49;;;;;;;17.20;8.40;;;11.60;99.90;;;;;;5054070;28;20087;-61
2022/03/14 11:26:18;;;;;;;17.55;9.32;;;11.60;99.90;;;;;;5054457;28;20041;-61
2022/03/14 11:28:47;;;;;;;15.40;9.75;;;11.80;99.90;;;;;;5054039;28;20041;-61
2022/03/14 11:31:13;;;;;;;20.85;10.77;;;11.80;99.90;;;;;;5070741;28;20316;-61
2022/03/14 11:33:43;;;;;;;18.02;10.90;;;11.70;99.90;;;;;;5073561;28;20044;-61
2022/03/14 11:36:09;;;;;;;18.92;10.80;;;11.80;99.90;;;;;;5074193;28;20047;-62
2022/03/14 11:38:35;;;;;;;19.83;11.43;;;11.80;99.90;;;;;;5073728;28;20105;-61
2022/03/14 11:41:02;;;;;;;18.52;11.52;;;11.80;99.90;;;;;;5073028;28;20117;-62
2022/03/14 11:43:28;;;;;;;16.52;11.52;;;11.90;99.90;;;;;;5059341;28;20044;-61
2022/03/14 11:45:57;;;;;;;18.70;12.30;;;11.90;99.90;;;;;;5054276;28;20041;-61
2022/03/14 11:48:28;;;;;;;16.88;11.25;;;12.00;99.90;;;;;;5054000;28;20033;-62
2022/03/14 11:50:53;;;;;;;20.88;11.75;;;12.10;99.90;;;;;;5068165;28;20036;-62
2022/03/14 11:53:31;;;;;;;17.98;11.55;;;12.20;99.90;;;;;;5061185;28;20094;-63
2022/03/14 11:56:07;;;;;;;18.83;11.98;;;12.20;99.90;;;;;;5053245;28;20044;-63
2022/03/14 11:58:53;;;;;;;17.98;11.90;;;12.30;99.90;;;;;;5053089;28;20454;-62
2022/03/14 12:01:23;;;;;;;15.23;11.60;;;12.50;99.90;;;;;;5058908;28;21234;-62
2022/03/14 12:04:00;;;;;;;22.95;12.40;;;12.60;99.90;;;;;;5054306;28;20044;-62
2022/03/14 12:06:47;;;;;;;19.50;11.95;;;12.60;99.90;;;;;;5054007;28;20055;-62
2022/03/14 12:09:24;;;;;;;15.27;11.13;;;12.70;99.90;;;;;;5053722;28;20674;-62
2022/03/14 12:11:57;;;;;;;17.95;11.80;;;12.80;99.90;;;;;;5053695;28;20163;-62
2022/03/14 12:14:38;;;;;;;20.02;11.45;;;12.90;99.90;;;;;;5052491;28;20037;-62
2022/03/14 12:17:23;;;;;;;24.58;12.68;;;13.00;99.90;;;;;;5053896;28;20041;-62
2022/03/14 12:19:55;;;;;;;19.75;12.10;;;13.10;99.90;;;;;;5056865;28;20048;-62
2022/03/14 12:22:27;;;;;;;17.35;10.88;;;13.10;99.90;;;;;;5073949;28;20109;-62
2022/03/14 12:24:53;;;;;;;17.23;11.20;;;13.10;99.90;;;;;;5073981;28;20036;-62
2022/03/14 12:27:29;;;;;;;15.02;9.57;;;13.10;99.90;;;;;;5056109;28;20519;-62
2022/03/14 12:29:56;;;;;;;15.68;10.20;;;13.20;99.90;;;;;;5053267;28;20469;-62
2022/03/14 12:32:43;;;;;;;17.40;10.60;;;13.20;99.90;;;;;;5053381;28;20469;-62
2022/03/14 12:35:26;;;;;;;18.83;11.07;;;13.20;99.90;;;;;;5053871;28;20045;-62
2022/03/14 12:37:56;;;;;;;16.30;10.60;;;13.40;99.90;;;;;;5052645;28;20059;-62
2022/03/14 12:40:21;;;;;;;15.35;10.45;;;13.40;99.90;;;;;;5061475;28;20461;-63
2022/03/14 12:42:53;;;;;;;20.08;10.40;;;13.40;99.90;;;;;;5073738;28;20119;-63
2022/03/14 12:45:43;;;;;;;19.73;9.40;;;13.50;99.90;;;;;;5073790;28;20114;-61